createdAt,value
2018-07-16T00:00:44.261Z,59.85
2018-07-16T00:01:47.675Z,59.50
2018-07-16T00:02:51.258Z,60.00
2018-07-16T00:03:54.674Z,59.64
2018-07-16T00:04:58.116Z,59.69
2018-07-16T00:06:01.538Z,59.03
2018-07-16T00:07:04.931Z,59.32
2018-07-16T00:08:08.346Z,59.16
2018-07-16T00:09:11.819Z,59.42
2018-07-16T00:10:15.248Z,59.68
2018-07-16T00:11:18.691Z,59.84
2018-07-16T00:12:22.123Z,59.41
2018-07-16T00:13:25.496Z,59.41
2018-07-16T00:14:29.035Z,59.33
2018-07-16T00:15:32.424Z,59.91
2018-07-16T00:16:35.798Z,59.41
2018-07-16T00:17:39.210Z,59.56
2018-07-16T00:18:42.619Z,59.86
2018-07-16T00:19:46.033Z,59.35
2018-07-16T00:20:49.432Z,59.51
2018-07-16T00:21:52.832Z,59.45
2018-07-16T00:22:56.232Z,59.58
2018-07-16T00:23:59.641Z,59.39
2018-07-16T00:25:03.100Z,60.18
2018-07-16T00:26:06.744Z,59.91
2018-07-16T00:27:10.167Z,59.19
2018-07-16T00:28:13.573Z,59.13
2018-07-16T00:29:16.964Z,59.48
2018-07-16T00:30:20.380Z,60.08
2018-07-16T00:31:23.756Z,60.15
2018-07-16T00:32:27.176Z,59.23
2018-07-16T00:33:30.569Z,59.99
2018-07-16T00:34:33.956Z,59.31
2018-07-16T00:35:37.338Z,59.99
2018-07-16T00:36:40.754Z,59.56
2018-07-16T00:37:44.151Z,59.94
2018-07-16T00:38:47.540Z,59.57
2018-07-16T00:39:50.969Z,59.21
2018-07-16T00:40:54.396Z,59.87
2018-07-16T00:41:57.786Z,59.47
2018-07-16T00:43:01.211Z,59.24
2018-07-16T00:44:04.769Z,59.59
2018-07-16T00:45:08.187Z,59.75
2018-07-16T00:46:11.585Z,59.45
2018-07-16T00:47:14.958Z,59.20
2018-07-16T00:48:18.342Z,59.26
2018-07-16T00:49:21.731Z,59.44
2018-07-16T00:50:25.117Z,59.18
2018-07-16T00:51:28.523Z,59.11
2018-07-16T00:52:31.918Z,59.35
2018-07-16T00:53:35.385Z,59.51
2018-07-16T00:54:38.786Z,59.68
2018-07-16T00:55:42.306Z,59.34
2018-07-16T00:56:45.738Z,59.40
2018-07-16T00:57:49.134Z,60.07
2018-07-16T00:58:52.595Z,59.54
2018-07-16T00:59:55.969Z,60.21
2018-07-16T01:00:59.358Z,59.10
2018-07-16T01:02:02.821Z,59.52
2018-07-16T01:03:06.270Z,59.70
2018-07-16T01:04:09.739Z,59.82
2018-07-16T01:05:13.176Z,59.48
2018-07-16T01:06:16.607Z,59.80
2018-07-16T01:07:20.080Z,59.25
2018-07-16T01:08:23.446Z,60.07
2018-07-16T01:09:26.870Z,60.14
2018-07-16T01:10:30.273Z,59.94
2018-07-16T01:11:33.700Z,59.24
2018-07-16T01:12:37.104Z,59.78
2018-07-16T01:13:40.548Z,59.45
2018-07-16T01:14:43.938Z,59.83
2018-07-16T01:15:47.592Z,60.04
2018-07-16T01:16:51.069Z,60.41
2018-07-16T01:17:54.477Z,60.01
2018-07-16T01:18:57.984Z,60.19
2018-07-16T01:20:01.892Z,59.72
2018-07-16T01:21:05.303Z,60.44
2018-07-16T01:22:08.686Z,60.01
2018-07-16T01:23:12.051Z,59.66
2018-07-16T01:24:15.499Z,59.82
2018-07-16T01:25:18.888Z,60.19
2018-07-16T01:26:22.335Z,59.76
2018-07-16T01:27:25.714Z,59.63
2018-07-16T01:28:29.108Z,60.16
2018-07-16T01:29:33.359Z,59.84
2018-07-16T01:30:36.750Z,59.99
2018-07-16T01:31:40.177Z,60.17
2018-07-16T01:32:43.560Z,60.47
2018-07-16T01:33:46.944Z,60.46
2018-07-16T01:34:50.347Z,60.21
2018-07-16T01:35:53.801Z,60.59
2018-07-16T01:36:57.207Z,59.78
2018-07-16T01:38:00.620Z,59.97
2018-07-16T01:39:04.284Z,60.65
2018-07-16T01:40:07.755Z,60.51
2018-07-16T01:41:11.170Z,60.67
2018-07-16T01:42:14.547Z,60.24
2018-07-16T01:43:17.929Z,60.56
2018-07-16T01:44:21.293Z,60.79
2018-07-16T01:45:24.708Z,60.09
2018-07-16T01:46:28.140Z,59.95
2018-07-16T01:47:31.560Z,60.61
2018-07-16T01:48:35.005Z,60.68
2018-07-16T01:49:38.370Z,60.11
2018-07-16T01:50:41.826Z,60.45
2018-07-16T01:51:45.222Z,60.23
2018-07-16T01:52:48.620Z,60.80
2018-07-16T01:53:52.047Z,60.76
2018-07-16T01:54:55.462Z,60.80
2018-07-16T01:55:58.903Z,60.03
2018-07-16T01:57:02.374Z,60.56
2018-07-16T01:58:05.943Z,59.97
2018-07-16T01:59:09.346Z,60.83
2018-07-16T02:00:12.778Z,60.63
2018-07-16T02:01:16.184Z,60.35
2018-07-16T02:02:19.616Z,60.05
2018-07-16T02:03:24.574Z,60.66
2018-07-16T02:04:27.949Z,60.19
2018-07-16T02:05:31.348Z,60.54
2018-07-16T02:06:34.752Z,60.59
2018-07-16T02:07:38.376Z,60.35
2018-07-16T02:08:41.795Z,60.40
2018-07-16T02:09:45.213Z,60.92
2018-07-16T02:10:48.632Z,60.88
2018-07-16T02:11:52.072Z,60.49
2018-07-16T02:12:55.482Z,60.65
2018-07-16T02:13:58.932Z,61.11
2018-07-16T02:15:02.532Z,60.00
2018-07-16T02:16:05.983Z,60.01
2018-07-16T02:17:09.362Z,60.48
2018-07-16T02:18:13.520Z,60.27
2018-07-16T02:19:16.904Z,60.68
2018-07-16T02:20:20.335Z,60.57
2018-07-16T02:21:23.744Z,60.41
2018-07-16T02:22:27.187Z,60.68
2018-07-16T02:23:30.620Z,60.60
2018-07-16T02:24:34.053Z,60.62
2018-07-16T02:25:37.472Z,60.01
2018-07-16T02:26:40.879Z,60.39
2018-07-16T02:27:44.260Z,60.13
2018-07-16T02:28:47.652Z,60.57
2018-07-16T02:29:51.063Z,60.92
2018-07-16T02:30:54.456Z,60.70
2018-07-16T02:31:57.863Z,60.44
2018-07-16T02:33:01.269Z,60.86
2018-07-16T02:34:04.740Z,60.25
2018-07-16T02:35:08.146Z,60.91
2018-07-16T02:36:11.552Z,60.21
2018-07-16T02:37:14.959Z,60.29
2018-07-16T02:38:18.357Z,60.31
2018-07-16T02:39:21.759Z,60.60
2018-07-16T02:40:25.260Z,60.68
2018-07-16T02:41:28.643Z,60.66
2018-07-16T02:42:32.059Z,60.53
2018-07-16T02:43:35.476Z,60.12
2018-07-16T02:44:38.927Z,60.24
2018-07-16T02:45:42.343Z,60.77
2018-07-16T02:46:46.351Z,60.70
2018-07-16T02:47:49.803Z,59.96
2018-07-16T02:48:53.253Z,60.75
2018-07-16T02:49:56.712Z,59.81
2018-07-16T02:51:00.120Z,60.75
2018-07-16T02:52:03.543Z,60.24
2018-07-16T02:53:06.960Z,59.97
2018-07-16T02:54:10.402Z,60.77
2018-07-16T02:55:13.896Z,60.58
2018-07-16T02:56:17.355Z,60.30
2018-07-16T02:57:20.708Z,60.52
2018-07-16T02:58:24.094Z,60.95
2018-07-16T02:59:27.553Z,60.63
2018-07-16T03:00:31.340Z,60.55
2018-07-16T03:01:35.204Z,60.05
2018-07-16T03:02:39.743Z,61.03
2018-07-16T03:03:43.198Z,60.28
2018-07-16T03:04:46.577Z,60.62
2018-07-16T03:05:49.995Z,61.20
2018-07-16T03:06:53.397Z,60.41
2018-07-16T03:07:56.798Z,60.61
2018-07-16T03:09:00.230Z,61.26
2018-07-16T03:10:03.818Z,61.06
2018-07-16T03:11:07.267Z,61.49
2018-07-16T03:12:10.702Z,60.88
2018-07-16T03:13:14.140Z,60.61
2018-07-16T03:14:17.687Z,60.60
2018-07-16T03:15:21.129Z,61.53
2018-07-16T03:16:24.599Z,61.19
2018-07-16T03:17:28.069Z,61.55
2018-07-16T03:18:31.509Z,61.20
2018-07-16T03:19:34.937Z,61.03
2018-07-16T03:20:38.324Z,61.33
2018-07-16T03:21:41.719Z,61.00
2018-07-16T03:22:45.106Z,61.17
2018-07-16T03:23:48.534Z,61.42
2018-07-16T03:24:51.914Z,60.97
2018-07-16T03:25:55.327Z,61.20
2018-07-16T03:26:58.756Z,61.32
2018-07-16T03:28:02.209Z,61.34
2018-07-16T03:29:05.640Z,61.06
2018-07-16T03:30:09.069Z,61.46
2018-07-16T03:31:12.461Z,60.65
2018-07-16T03:32:15.856Z,60.95
2018-07-16T03:33:19.395Z,60.82
2018-07-16T03:34:22.809Z,61.05
2018-07-16T03:35:26.193Z,61.44
2018-07-16T03:36:29.718Z,61.19
2018-07-16T03:37:33.160Z,61.56
2018-07-16T03:38:36.731Z,61.50
2018-07-16T03:39:40.142Z,60.46
2018-07-16T03:40:43.622Z,61.09
2018-07-16T03:41:47.113Z,60.94
2018-07-16T03:42:50.520Z,60.80
2018-07-16T03:43:53.936Z,61.25
2018-07-16T03:44:57.333Z,60.95
2018-07-16T03:46:00.992Z,61.03
2018-07-16T03:47:04.461Z,61.41
2018-07-16T03:48:07.902Z,61.00
2018-07-16T03:49:11.296Z,60.51
2018-07-16T03:50:14.695Z,60.58
2018-07-16T03:51:18.076Z,60.95
2018-07-16T03:52:21.488Z,61.20
2018-07-16T03:53:24.973Z,60.49
2018-07-16T03:54:28.386Z,61.36
2018-07-16T03:55:31.892Z,61.15
2018-07-16T03:56:35.308Z,61.52
2018-07-16T03:57:38.720Z,60.85
2018-07-16T03:58:42.127Z,61.11
2018-07-16T03:59:45.526Z,61.33
2018-07-16T04:00:48.946Z,61.03
2018-07-16T04:01:52.350Z,60.94
2018-07-16T04:02:55.811Z,60.83
2018-07-16T04:03:59.209Z,60.94
2018-07-16T04:05:02.620Z,60.67
2018-07-16T04:06:06.053Z,61.11
2018-07-16T04:07:09.578Z,60.71
2018-07-16T04:08:13.156Z,61.15
2018-07-16T04:09:16.571Z,61.41
2018-07-16T04:10:19.968Z,61.38
2018-07-16T04:11:23.402Z,61.51
2018-07-16T04:12:26.852Z,61.73
2018-07-16T04:13:30.252Z,61.83
2018-07-16T04:14:33.629Z,61.53
2018-07-16T04:15:37.020Z,61.29
2018-07-16T04:16:40.460Z,60.57
2018-07-16T04:17:43.858Z,60.98
2018-07-16T04:18:47.261Z,60.02
2018-07-16T04:19:50.664Z,60.06
2018-07-16T04:20:54.099Z,59.55
2018-07-16T04:21:57.509Z,57.96
2018-07-16T04:23:00.921Z,56.67
2018-07-16T04:24:04.380Z,56.96
2018-07-16T04:25:07.771Z,56.06
2018-07-16T04:26:11.198Z,56.45
2018-07-16T04:27:14.585Z,56.65
2018-07-16T04:28:17.992Z,55.35
2018-07-16T04:29:21.399Z,54.38
2018-07-16T04:30:24.823Z,52.63
2018-07-16T04:31:28.265Z,51.78
2018-07-16T04:32:31.983Z,50.97
2018-07-16T04:33:35.380Z,50.73
2018-07-16T04:34:38.761Z,50.39
2018-07-16T04:35:42.185Z,50.38
2018-07-16T04:36:45.696Z,49.81
2018-07-16T04:37:49.498Z,49.58
2018-07-16T04:38:52.974Z,50.11
2018-07-16T04:39:56.446Z,50.30
2018-07-16T04:40:59.801Z,49.87
2018-07-16T04:42:03.596Z,50.57
2018-07-16T04:43:08.823Z,50.22
2018-07-16T04:44:12.366Z,50.52
2018-07-16T04:45:15.812Z,50.31
2018-07-16T04:46:19.616Z,50.36
2018-07-16T04:47:22.992Z,50.12
2018-07-16T04:48:26.494Z,49.79
2018-07-16T04:49:29.885Z,49.65
2018-07-16T04:50:33.284Z,49.54
2018-07-16T04:51:37.240Z,49.04
2018-07-16T04:52:40.678Z,49.37
2018-07-16T04:53:45.301Z,49.46
2018-07-16T04:54:48.681Z,48.89
2018-07-16T04:55:52.113Z,48.41
2018-07-16T04:56:55.539Z,48.72
2018-07-16T04:57:58.987Z,48.42
2018-07-16T04:59:02.395Z,47.99
2018-07-16T05:00:06.319Z,47.84
2018-07-16T05:01:09.960Z,47.82
2018-07-16T05:02:13.423Z,48.31
2018-07-16T05:03:17.127Z,48.65
2018-07-16T05:04:20.643Z,48.30
2018-07-16T05:05:24.189Z,48.48
2018-07-16T05:06:27.616Z,47.95
2018-07-16T05:07:31.104Z,47.46
2018-07-16T05:08:34.779Z,48.14
2018-07-16T05:09:38.188Z,47.76
2018-07-16T05:10:41.658Z,47.69
2018-07-16T05:11:45.063Z,47.32
2018-07-16T05:12:48.667Z,47.05
2018-07-16T05:13:52.182Z,47.43
2018-07-16T05:14:55.706Z,47.54
2018-07-16T05:15:59.154Z,47.62
2018-07-16T05:17:02.577Z,47.29
2018-07-16T05:18:06.029Z,47.68
2018-07-16T05:19:09.497Z,46.94
2018-07-16T05:20:13.189Z,46.91
2018-07-16T05:21:16.594Z,47.23
2018-07-16T05:22:20.012Z,47.29
2018-07-16T05:23:23.472Z,46.40
2018-07-16T05:24:26.940Z,46.88
2018-07-16T05:25:30.498Z,46.91
2018-07-16T05:26:33.996Z,46.43
2018-07-16T05:27:37.441Z,47.38
2018-07-16T05:28:41.064Z,46.65
2018-07-16T05:29:44.850Z,47.06
2018-07-16T05:30:48.268Z,46.65
2018-07-16T05:31:51.982Z,46.56
2018-07-16T05:32:55.381Z,47.39
2018-07-16T05:33:59.048Z,47.31
2018-07-16T05:35:02.466Z,46.36
2018-07-16T05:36:05.938Z,46.66
2018-07-16T05:37:09.360Z,47.87
2018-07-16T05:38:12.824Z,47.46
2018-07-16T05:39:16.232Z,47.90
2018-07-16T05:40:19.942Z,47.71
2018-07-16T05:41:23.368Z,47.25
2018-07-16T05:42:26.753Z,47.12
2018-07-16T05:43:30.222Z,47.97
2018-07-16T05:44:33.641Z,47.28
2018-07-16T05:45:37.047Z,48.16
2018-07-16T05:46:40.460Z,47.58
2018-07-16T05:47:43.911Z,47.01
2018-07-16T05:48:47.341Z,47.72
2018-07-16T05:49:50.772Z,47.51
2018-07-16T05:50:54.178Z,47.73
2018-07-16T05:51:57.596Z,48.04
2018-07-16T05:53:01.034Z,47.58
2018-07-16T05:54:04.475Z,48.10
2018-07-16T05:55:07.940Z,47.59
2018-07-16T05:56:11.363Z,47.91
2018-07-16T05:57:14.787Z,47.99
2018-07-16T05:58:18.388Z,47.16
2018-07-16T05:59:21.877Z,47.56
2018-07-16T06:00:25.262Z,47.38
2018-07-16T06:01:28.676Z,47.17
2018-07-16T06:02:32.279Z,47.51
2018-07-16T06:03:35.838Z,47.90
2018-07-16T06:04:39.368Z,48.13
2018-07-16T06:05:43.070Z,47.70
2018-07-16T06:06:46.493Z,48.39
2018-07-16T06:07:49.878Z,48.45
2018-07-16T06:08:53.381Z,48.40
2018-07-16T06:09:56.890Z,48.31
2018-07-16T06:11:00.565Z,48.13
2018-07-16T06:12:04.169Z,47.67
2018-07-16T06:13:07.731Z,48.42
2018-07-16T06:14:11.364Z,48.49
2018-07-16T06:15:15.005Z,48.42
2018-07-16T06:16:18.532Z,47.77
2018-07-16T06:17:21.953Z,48.15
2018-07-16T06:18:25.368Z,48.45
2018-07-16T06:19:28.796Z,47.49
2018-07-16T06:20:32.211Z,47.67
2018-07-16T06:21:35.633Z,47.96
2018-07-16T06:22:39.262Z,48.32
2018-07-16T06:23:42.668Z,48.53
2018-07-16T06:24:46.109Z,48.17
2018-07-16T06:25:49.688Z,47.86
2018-07-16T06:26:53.079Z,48.64
2018-07-16T06:27:56.535Z,48.58
2018-07-16T06:29:00.035Z,48.37
2018-07-16T06:30:03.571Z,48.64
2018-07-16T06:31:07.111Z,48.22
2018-07-16T06:32:10.676Z,47.84
2018-07-16T06:33:14.116Z,48.29
2018-07-16T06:34:17.535Z,48.68
2018-07-16T06:35:20.940Z,47.81
2018-07-16T06:36:24.322Z,48.50
2018-07-16T06:37:27.765Z,48.21
2018-07-16T06:38:31.200Z,48.74
2018-07-16T06:39:34.619Z,48.26
2018-07-16T06:40:38.061Z,48.14
2018-07-16T06:41:41.738Z,48.07
2018-07-16T06:42:45.191Z,48.28
2018-07-16T06:43:48.690Z,48.94
2018-07-16T06:44:52.100Z,48.88
2018-07-16T06:45:55.567Z,48.54
2018-07-16T06:46:59.020Z,48.46
2018-07-16T06:48:02.521Z,48.98
2018-07-16T06:49:05.948Z,48.04
2018-07-16T06:50:09.467Z,48.11
2018-07-16T06:51:12.840Z,48.67
2018-07-16T06:52:16.310Z,48.54
2018-07-16T06:53:19.760Z,48.79
2018-07-16T06:54:23.240Z,48.91
2018-07-16T06:55:26.670Z,49.51
2018-07-16T06:56:30.098Z,49.26
2018-07-16T06:57:33.693Z,49.75
2018-07-16T06:58:37.090Z,49.63
2018-07-16T06:59:40.478Z,50.30
2018-07-16T07:00:43.922Z,50.12
2018-07-16T07:01:47.423Z,50.20
2018-07-16T07:02:50.859Z,50.30
2018-07-16T07:03:55.016Z,49.88
2018-07-16T07:04:58.452Z,50.09
2018-07-16T07:06:01.836Z,50.22
2018-07-16T07:07:05.272Z,50.43
2018-07-16T07:08:08.937Z,50.39
2018-07-16T07:09:12.355Z,50.39
2018-07-16T07:10:15.758Z,50.34
2018-07-16T07:11:19.148Z,50.07
2018-07-16T07:12:22.557Z,50.34
2018-07-16T07:13:25.946Z,50.12
2018-07-16T07:14:29.330Z,49.98
2018-07-16T07:15:32.790Z,49.97
2018-07-16T07:16:36.194Z,50.32
2018-07-16T07:17:39.772Z,50.50
2018-07-16T07:18:43.173Z,50.66
2018-07-16T07:19:46.566Z,50.35
2018-07-16T07:20:49.947Z,50.52
2018-07-16T07:21:53.356Z,50.54
2018-07-16T07:22:56.892Z,50.12
2018-07-16T07:24:00.529Z,50.54
2018-07-16T07:25:04.098Z,50.55
2018-07-16T07:26:07.547Z,50.29
2018-07-16T07:27:10.938Z,50.89
2018-07-16T07:28:14.383Z,50.01
2018-07-16T07:29:17.795Z,50.55
2018-07-16T07:30:21.202Z,50.38
2018-07-16T07:31:24.622Z,50.94
2018-07-16T07:32:28.030Z,50.53
2018-07-16T07:33:31.637Z,50.36
2018-07-16T07:34:35.035Z,50.79
2018-07-16T07:35:38.451Z,50.20
2018-07-16T07:36:41.942Z,50.71
2018-07-16T07:37:45.555Z,50.47
2018-07-16T07:38:49.089Z,50.99
2018-07-16T07:39:52.528Z,50.73
2018-07-16T07:40:55.926Z,51.15
2018-07-16T07:41:59.502Z,50.36
2018-07-16T07:43:03.043Z,50.65
2018-07-16T07:44:06.531Z,50.64
2018-07-16T07:45:10.003Z,51.35
2018-07-16T07:46:13.519Z,50.65
2018-07-16T07:47:16.968Z,51.05
2018-07-16T07:48:20.391Z,50.83
2018-07-16T07:49:23.822Z,50.83
2018-07-16T07:50:27.248Z,50.70
2018-07-16T07:51:30.674Z,50.84
2018-07-16T07:52:34.117Z,50.83
2018-07-16T07:53:37.586Z,51.50
2018-07-16T07:54:41.164Z,51.51
2018-07-16T07:55:44.546Z,51.48
2018-07-16T07:56:47.983Z,50.83
2018-07-16T07:57:51.396Z,50.99
2018-07-16T07:58:54.843Z,51.19
2018-07-16T07:59:58.236Z,51.23
2018-07-16T08:01:01.692Z,50.94
2018-07-16T08:02:05.241Z,51.43
2018-07-16T08:03:08.680Z,51.69
2018-07-16T08:04:12.104Z,51.18
2018-07-16T08:05:15.545Z,51.59
2018-07-16T08:06:18.992Z,51.08
2018-07-16T08:07:22.438Z,51.88
2018-07-16T08:08:25.856Z,51.48
2018-07-16T08:09:29.321Z,51.33
2018-07-16T08:10:32.781Z,51.58
2018-07-16T08:11:36.340Z,51.30
2018-07-16T08:12:39.764Z,51.95
2018-07-16T08:13:43.354Z,51.75
2018-07-16T08:14:46.732Z,51.35
2018-07-16T08:15:50.219Z,51.58
2018-07-16T08:16:53.658Z,51.45
2018-07-16T08:17:57.147Z,52.11
2018-07-16T08:19:00.612Z,51.41
2018-07-16T08:20:04.621Z,51.40
2018-07-16T08:21:08.126Z,51.76
2018-07-16T08:22:11.526Z,51.80
2018-07-16T08:23:14.983Z,51.93
2018-07-16T08:24:18.563Z,51.72
2018-07-16T08:25:21.992Z,51.61
2018-07-16T08:26:25.417Z,52.04
2018-07-16T08:27:28.888Z,52.15
2018-07-16T08:28:32.324Z,51.75
2018-07-16T08:29:35.760Z,51.68
2018-07-16T08:30:39.195Z,51.65
2018-07-16T08:31:42.754Z,51.75
2018-07-16T08:32:46.575Z,51.74
2018-07-16T08:33:50.023Z,52.39
2018-07-16T08:34:53.431Z,52.44
2018-07-16T08:35:56.853Z,52.16
2018-07-16T08:37:00.270Z,52.06
2018-07-16T08:38:03.727Z,52.01
2018-07-16T08:39:07.242Z,51.56
2018-07-16T08:40:10.691Z,52.15
2018-07-16T08:41:14.180Z,52.01
2018-07-16T08:42:17.790Z,52.05
2018-07-16T08:43:21.214Z,52.40
2018-07-16T08:44:24.602Z,52.42
2018-07-16T08:45:28.070Z,52.20
2018-07-16T08:46:32.042Z,52.04
2018-07-16T08:47:35.445Z,52.01
2018-07-16T08:48:38.848Z,52.17
2018-07-16T08:49:42.747Z,51.91
2018-07-16T08:50:46.155Z,51.85
2018-07-16T08:51:49.575Z,52.11
2018-07-16T08:52:53.039Z,52.14
2018-07-16T08:53:56.502Z,51.59
2018-07-16T08:54:59.921Z,52.39
2018-07-16T08:56:03.708Z,51.87
2018-07-16T08:57:07.148Z,52.32
2018-07-16T08:58:10.574Z,51.69
2018-07-16T08:59:14.063Z,51.89
2018-07-16T09:00:17.475Z,51.63
2018-07-16T09:01:20.878Z,51.93
2018-07-16T09:02:24.319Z,51.65
2018-07-16T09:03:27.720Z,52.74
2018-07-16T09:04:31.123Z,52.25
2018-07-16T09:05:34.530Z,52.10
2018-07-16T09:06:38.112Z,52.05
2018-07-16T09:07:41.510Z,52.79
2018-07-16T09:08:45.175Z,52.41
2018-07-16T09:09:48.595Z,52.27
2018-07-16T09:10:52.103Z,52.22
2018-07-16T09:11:55.499Z,52.84
2018-07-16T09:12:58.909Z,52.54
2018-07-16T09:14:02.341Z,52.34
2018-07-16T09:15:05.815Z,52.51
2018-07-16T09:16:09.256Z,52.84
2018-07-16T09:17:12.724Z,52.27
2018-07-16T09:18:16.132Z,52.61
2018-07-16T09:19:19.733Z,52.79
2018-07-16T09:20:23.140Z,52.19
2018-07-16T09:21:26.578Z,52.19
2018-07-16T09:22:30.431Z,52.56
2018-07-16T09:23:33.991Z,52.35
2018-07-16T09:24:37.417Z,52.03
2018-07-16T09:25:40.848Z,52.14
2018-07-16T09:26:44.249Z,52.78
2018-07-16T09:27:47.663Z,53.07
2018-07-16T09:28:51.138Z,52.75
2018-07-16T09:29:54.612Z,52.67
2018-07-16T09:30:57.990Z,52.87
2018-07-16T09:32:01.435Z,52.74
2018-07-16T09:33:04.893Z,52.02
2018-07-16T09:34:08.936Z,52.31
2018-07-16T09:35:12.367Z,53.02
2018-07-16T09:36:15.834Z,52.73
2018-07-16T09:37:19.256Z,52.28
2018-07-16T09:38:22.689Z,52.35
2018-07-16T09:39:26.082Z,52.43
2018-07-16T09:40:29.563Z,52.98
2018-07-16T09:41:32.996Z,52.29
2018-07-16T09:42:36.504Z,52.82
2018-07-16T09:43:39.949Z,52.61
2018-07-16T09:44:43.384Z,52.26
2018-07-16T09:45:46.814Z,52.77
2018-07-16T09:46:50.230Z,52.91
2018-07-16T09:47:53.824Z,52.09
2018-07-16T09:48:57.264Z,52.20
2018-07-16T09:50:00.712Z,52.54
2018-07-16T09:51:04.128Z,52.33
2018-07-16T09:52:07.560Z,52.68
2018-07-16T09:53:10.942Z,52.74
2018-07-16T09:54:14.386Z,52.38
2018-07-16T09:55:18.025Z,52.63
2018-07-16T09:56:21.486Z,52.37
2018-07-16T09:57:24.861Z,52.07
2018-07-16T09:58:28.330Z,52.23
2018-07-16T09:59:31.756Z,52.25
2018-07-16T10:00:40.664Z,52.34
2018-07-16T10:01:46.068Z,52.03
2018-07-16T10:02:49.676Z,52.56
2018-07-16T10:03:53.098Z,53.02
2018-07-16T10:04:56.509Z,53.10
2018-07-16T10:05:59.939Z,52.86
2018-07-16T10:07:03.388Z,53.04
2018-07-16T10:08:06.830Z,52.71
2018-07-16T10:09:10.840Z,52.09
2018-07-16T10:10:14.290Z,52.59
2018-07-16T10:11:17.682Z,53.13
2018-07-16T10:12:21.581Z,52.24
2018-07-16T10:13:25.191Z,52.22
2018-07-16T10:14:28.905Z,52.62
2018-07-16T10:15:32.932Z,52.50
2018-07-16T10:16:36.359Z,52.40
2018-07-16T10:17:39.797Z,53.14
2018-07-16T10:18:43.199Z,52.44
2018-07-16T10:19:46.644Z,52.79
2018-07-16T10:20:50.053Z,52.59
2018-07-16T10:21:53.457Z,52.79
2018-07-16T10:22:56.840Z,52.67
2018-07-16T10:24:00.253Z,52.90
2018-07-16T10:25:03.679Z,52.97
2018-07-16T10:26:07.372Z,52.60
2018-07-16T10:27:10.785Z,52.18
2018-07-16T10:28:14.210Z,52.64
2018-07-16T10:29:17.867Z,52.87
2018-07-16T10:30:21.512Z,52.66
2018-07-16T10:31:25.420Z,52.79
2018-07-16T10:32:28.811Z,52.98
2018-07-16T10:33:32.317Z,52.66
2018-07-16T10:34:35.916Z,52.88
2018-07-16T10:35:39.486Z,52.13
2018-07-16T10:36:42.892Z,52.36
2018-07-16T10:37:46.405Z,52.47
2018-07-16T10:38:53.707Z,52.28
2018-07-16T10:40:01.467Z,52.93
2018-07-16T10:41:08.402Z,51.96
2018-07-16T10:42:11.968Z,52.26
2018-07-16T10:43:15.632Z,52.36
2018-07-16T10:44:19.557Z,52.41
2018-07-16T10:45:23.125Z,52.37
2018-07-16T10:46:26.807Z,53.01
2018-07-16T10:47:30.379Z,53.04
2018-07-16T10:48:33.948Z,52.74
2018-07-16T10:49:37.453Z,52.42
2018-07-16T10:50:41.363Z,53.10
2018-07-16T10:51:44.974Z,52.03
2018-07-16T10:52:48.439Z,52.84
2018-07-16T10:53:52.272Z,52.81
2018-07-16T10:54:55.907Z,52.10
2018-07-16T10:55:59.917Z,52.99
2018-07-16T10:57:03.507Z,52.51
2018-07-16T10:58:07.269Z,53.15
2018-07-16T10:59:10.780Z,52.69
2018-07-16T11:00:14.256Z,52.83
2018-07-16T11:01:18.071Z,52.34
2018-07-16T11:02:21.680Z,52.27
2018-07-16T11:03:25.368Z,52.60
2018-07-16T11:04:28.901Z,52.64
2018-07-16T11:05:33.009Z,53.13
2018-07-16T11:06:36.377Z,52.88
2018-07-16T11:07:39.797Z,52.38
2018-07-16T11:08:43.184Z,52.74
2018-07-16T11:09:46.600Z,52.66
2018-07-16T11:10:50.028Z,52.50
2018-07-16T11:11:53.473Z,52.75
2018-07-16T11:12:56.884Z,52.76
2018-07-16T11:14:00.309Z,52.32
2018-07-16T11:15:03.856Z,52.38
2018-07-16T11:16:07.192Z,52.27
2018-07-16T11:17:10.654Z,52.74
2018-07-16T11:18:14.087Z,52.31
2018-07-16T11:19:17.484Z,52.48
2018-07-16T11:20:21.001Z,52.80
2018-07-16T11:21:24.436Z,52.55
2018-07-16T11:22:28.081Z,52.78
2018-07-16T11:23:31.497Z,52.56
2018-07-16T11:24:34.894Z,52.49
2018-07-16T11:25:38.336Z,52.45
2018-07-16T11:26:41.747Z,52.78
2018-07-16T11:27:45.149Z,52.82
2018-07-16T11:28:48.560Z,52.68
2018-07-16T11:29:51.998Z,52.58
2018-07-16T11:30:55.406Z,52.96
2018-07-16T11:31:58.851Z,52.39
2018-07-16T11:33:02.324Z,53.05
2018-07-16T11:34:05.981Z,52.67
2018-07-16T11:35:09.510Z,53.06
2018-07-16T11:36:13.129Z,52.66
2018-07-16T11:37:16.562Z,52.72
2018-07-16T11:38:20.013Z,53.28
2018-07-16T11:39:23.460Z,52.57
2018-07-16T11:40:26.868Z,52.23
2018-07-16T11:41:30.307Z,52.80
2018-07-16T11:42:33.725Z,52.32
2018-07-16T11:43:37.113Z,52.14
2018-07-16T11:44:40.512Z,52.33
2018-07-16T11:45:44.027Z,52.68
2018-07-16T11:46:47.441Z,52.33
2018-07-16T11:47:50.925Z,52.90
2018-07-16T11:48:54.317Z,53.03
2018-07-16T11:49:57.714Z,52.59
2018-07-16T11:51:01.130Z,52.32
2018-07-16T11:52:04.619Z,51.82
2018-07-16T11:53:08.142Z,52.59
2018-07-16T11:54:11.562Z,52.22
2018-07-16T11:55:15.120Z,52.48
2018-07-16T11:56:18.575Z,52.57
2018-07-16T11:57:22.020Z,51.88
2018-07-16T11:58:25.414Z,52.03
2018-07-16T11:59:28.864Z,51.85
2018-07-16T12:00:32.272Z,51.76
2018-07-16T12:01:35.720Z,52.36
2018-07-16T12:02:39.121Z,51.63
2018-07-16T12:03:42.499Z,52.00
2018-07-16T12:04:45.921Z,52.35
2018-07-16T12:05:49.351Z,52.39
2018-07-16T12:06:52.869Z,52.57
2018-07-16T12:07:56.416Z,52.42
2018-07-16T12:09:00.076Z,52.29
2018-07-16T12:10:03.760Z,52.47
2018-07-16T12:11:07.186Z,52.37
2018-07-16T12:12:10.670Z,52.60
2018-07-16T12:13:14.236Z,52.11
2018-07-16T12:14:17.655Z,52.45
2018-07-16T12:15:21.057Z,52.10
2018-07-16T12:16:24.476Z,52.13
2018-07-16T12:17:27.892Z,52.52
2018-07-16T12:18:31.315Z,51.95
2018-07-16T12:19:34.750Z,51.92
2018-07-16T12:20:38.184Z,52.60
2018-07-16T12:21:41.611Z,52.55
2018-07-16T12:22:45.068Z,52.02
2018-07-16T12:23:48.493Z,52.33
2018-07-16T12:24:51.903Z,52.73
2018-07-16T12:25:55.425Z,52.14
2018-07-16T12:26:58.906Z,52.10
2018-07-16T12:28:02.351Z,52.62
2018-07-16T12:29:05.819Z,52.51
2018-07-16T12:30:09.259Z,52.76
2018-07-16T12:31:12.690Z,52.51
2018-07-16T12:32:16.113Z,52.18
2018-07-16T12:33:19.579Z,52.44
2018-07-16T12:34:25.655Z,52.42
2018-07-16T12:35:29.099Z,51.82
2018-07-16T12:36:33.185Z,51.95
2018-07-16T12:37:36.655Z,52.52
2018-07-16T12:38:40.081Z,51.64
2018-07-16T12:39:43.462Z,51.95
2018-07-16T12:40:46.965Z,52.43
2018-07-16T12:41:50.695Z,51.82
2018-07-16T12:42:54.096Z,51.07
2018-07-16T12:43:58.264Z,51.50
2018-07-16T12:45:02.100Z,51.95
2018-07-16T12:46:06.371Z,51.36
2018-07-16T12:47:10.013Z,52.04
2018-07-16T12:48:13.483Z,51.39
2018-07-16T12:49:16.897Z,51.57
2018-07-16T12:50:20.320Z,51.46
2018-07-16T12:51:23.878Z,51.91
2018-07-16T12:52:27.322Z,51.51
2018-07-16T12:53:30.787Z,52.28
2018-07-16T12:54:34.239Z,52.20
2018-07-16T12:55:37.718Z,51.74
2018-07-16T12:56:41.123Z,51.91
2018-07-16T12:57:44.525Z,51.24
2018-07-16T12:58:47.906Z,52.03
2018-07-16T12:59:51.353Z,51.45
2018-07-16T13:00:54.769Z,51.84
2018-07-16T13:01:58.169Z,51.33
2018-07-16T13:03:02.640Z,51.78
2018-07-16T13:04:06.081Z,51.92
2018-07-16T13:05:09.570Z,51.47
2018-07-16T13:06:13.140Z,51.77
2018-07-16T13:07:16.565Z,51.60
2018-07-16T13:08:20.119Z,51.64
2018-07-16T13:09:23.737Z,51.42
2018-07-16T13:10:27.179Z,52.24
2018-07-16T13:11:31.133Z,51.83
2018-07-16T13:12:35.256Z,52.48
2018-07-16T13:13:39.007Z,51.40
2018-07-16T13:14:42.492Z,51.92
2018-07-16T13:15:45.943Z,51.81
2018-07-16T13:16:50.512Z,51.50
2018-07-16T13:17:54.015Z,51.66
2018-07-16T13:18:57.722Z,51.90
2018-07-16T13:20:01.166Z,52.31
2018-07-16T13:21:04.607Z,52.18
2018-07-16T13:22:08.926Z,52.04
2018-07-16T13:23:12.320Z,52.61
2018-07-16T13:24:15.802Z,52.12
2018-07-16T13:25:19.220Z,52.15
2018-07-16T13:26:22.649Z,52.48
2018-07-16T13:27:26.072Z,52.21
2018-07-16T13:28:29.505Z,52.60
2018-07-16T13:29:33.950Z,52.10
2018-07-16T13:30:37.460Z,52.06
2018-07-16T13:31:40.891Z,51.94
2018-07-16T13:32:44.321Z,51.92
2018-07-16T13:33:47.902Z,52.42
2018-07-16T13:34:51.291Z,51.96
2018-07-16T13:35:54.717Z,52.50
2018-07-16T13:36:58.175Z,52.15
2018-07-16T13:38:02.143Z,51.92